Accueil
METAR-TAF:

METAR-TAF

Aéroports :

Georgetown, Île de l'Ascension

latitude: 07-58S, longitude: 014-24W, altitude: 86 m

Observation

Le bulletin a été fait il y a 8 heures et 25 minutes, à 20:50 UTC
Vent 15 kt de sud-est
Température 25°C
Humidité 65%
Pression 1013 hPa
Visibilité 10 km ou plus
Quelques nuages à une hauteur de 2500 ft
Nuages épars à une hauteur de 3000 ft

METAR: FHAW 252050Z 13015KT 9999 FEW025 SCT030 25/18 Q1013 BLU

Heure: 05:15 (05:15 UTC)


TAF: absent

Observations et prévisions météorologiques de plus de 4000 aéroports (messages METAR et TAF).

Les stations disponibles sont représentées par des disques jaunes et rouges sur la carte.

Passer la souris dessus pour voir le nom de la station.

Cliquer dessus pour voir les observations et prévisions météorologiques.

Pour changer de carte: cliquez sur les boutons verts avec une croix noire pour zoomer, sur le bouton vert avec un tiret pour effectuer un zoom arrière, ou sur les flèches vertes pour les cartes adjacentes.


METAR-TAF: